Flugplatz Beilngries (EDNC)

Hier findest Du alle Informationen zum Flugplatz Beilngries (EDNC).

Informationen für Piloten zum Flugplatz Beilngries

Hier findest Du alle relevanten Informationen, die Du als Pilot benötigst, um Beilngries anzufliegen.

Flugplatz: Beilngries ICAO-Code: EDNC
Frequenz Turm: 118,350 Mhz GAFOR Gebiet: 63
Frequenz Ground: 118,350 Mhz Mogas: ja
Platzrunde: N 2800 ft Landegebühr: -
Platzhöhe: - Sunrise: 05:29 Uhr UTC
Pisten: 10/28 - 600 m x 25 m, GRAS Sunset: 16:31 Uhr UTC

Flugwetter am Flugplatz Beilngries

Die METAR Information stammen aus EDDN (60.75 km entfernt).

METAR Code:
2019/10/02 16:20
EDDN 021620Z 32005KT 9999 FEW025 10/07 Q1011 NOSIG

Flugschulen am Flugplatz Beilngries

Am Flugplatz Beilngries gibt es eine Flugschule.

Benachbarte Flugplätze und Flugschulen

Es gibt 15 weitere Flugplätze in einem Umkreis von 50 km um den Flugplatz Beilngries.

Jetzt anmelden

Passwort vergessen

Anzeige: Skymap
Umfrage Archiv

Werdet Ihr Euer UL im Zuge der 600 kg MTOW auflasten lassen?

Ja, bei Kosten bis max. 5.000 Euro
43.5 %
Nein
32.5 %
Ja, bei Kosten bis max. 7.500 Euro
9.1 %
Ja, unabhängig von den Kosten
7.8 %
Ja, bei Kosten bis max. 10.000 Euro
7.1 %
Stimmen: 154 | Diskussion
Anzeige: Roland Aircraft
Statistik Alle Mitglieder

Aktuell sind 50 Besucher online, davon 5 Mitglieder und 45 Gäste.


Mitglieder online:
Aero-Flo  heiner  trauntaler  Chris_EDNC  G3-Flieger 

Anzeige: VFR Sprechfunk Simulator


Anzeige: Pocket FMS